Dighton, Kansas
Current Conditions -  °F | °C
As of 5:16 AM on Thursday 23 Oct 2014 (Local Time) from KGCK Reporting Station
Light Rain Light Rain  
Wind Chill: 57°   Ceiling: 600
Heat Index: 57°   Visibility: 1.5mi
Dew Point: 57°   Wind: 0mph
Humidity: 100%   Direction: NA
Pressure: 30.06"   Gusts: NA
Location:  38.48°N, 100.47°W
Report Text: KGCK 231016Z AUTO 00000KT 1 1/2SM -RA BR OVC006 14/14 A3006 RMK AO2 RAB15 P0000 T01390139
Loading
Personal Weather Stations






























Interactive Weather Map
Tropical Storm Tracking
New forecast layout! Learn more

10-Day Weather Forecast

Advertisements
Track Severe Weather on mobile